Airfield :







YOU CAN JOIN US ON...

 
LOGIN :

Register | Disclaimer

   EN    FR    IT 

 









Legend :    VFR   Marginal VFR   IFR   Intensive IFR   Very Intensive IFR
Visi :
Ceiling :
>= 8 km
>= 3000ft
5 to 8 km
1000 to 3000 ft
1500m to 5 km
500 to 1000 ft
800 to 1500m
200 to 500 ft
< 800m
< 200 ft
Symbols :   Thunderstorms  Fog  Heavy snow  Heavy precipitations  Wind > 20 kt







- Airport Elevation : 988 ft


KFVE - Northern Aroostook Regional

CURRENT METAR :
  • 262253Z AUTO 16008KT 10SM OVC008 17/14 A3006 RMK AO2 SLP179 T01670139

EXPIRED METARs :
  • 262153Z AUTO 15009KT 10SM OVC007 17/14 A3005 RMK AO2 SLP173 T01670139
  • 262130Z AUTO 16010KT 10SM OVC006 17/14 A3004 RMK AO2 CIG 004V009 T01670139
  • 262053Z AUTO 15011KT 10SM OVC003 16/14 A3005 RMK AO2 SLP174 T01610139 55001

TAF KFVE
Valid from the 27 at 00:00 until the 28 at 00:00 UTC


262328Z 2700/2724 15009G16KT P6SM OVC008
FM270200 15008KT 5SM BR OVC005
FM270500 15007KT 1SM BR VCSH OVC003
FM271200 15006KT 4SM BR VCSH OVC005
FM271400 15006KT P6SM OVC008
FM271600 15006KT P6SM VCSH OVC015
FM272000 15007KT P6SM -SHRA VCTS SCT012CB OVC024
KZBW FIR / North America



MET'MAP, your aeronautical weather chart ! - Copyright ORBIFLY December 2007 - Disclaimer

ORBIFLY MET'MAP TEAM :

Programming & Development : Alexandra Zaïnal
Concept & Development : Baudouin d'Aumeries
Co-Development & Prog : Marc-Olivier Méhu
Technical & hardware support : Manuel Goepfert

Contact : metmap@orbifly.com




SOURCES & CREDITS :

   NOAA